This is the latest recevied weather packets stored in our database for station/object DB2AG-13. If no packets are shown the sender has not sent any weather packets the latest 10 day(s).
| Time | Temp. | Humidity | Pressure | Rain* | Wind** | Luminosity | Snow |
|---|---|---|---|---|---|---|---|
| 1788160549 | 65° F | 64% | 759.9 mmHg | - | - | - | - |
| 1788160007 | 65° F | 64% | 759.9 mmHg | - | - | - | - |
| 1788159466 | 65° F | 65% | 759.9 mmHg | - | - | - | - |
| 1788158936 | 65° F | 64% | 759.8 mmHg | - | - | - | - |
| 1788158390 | 65° F | 64% | 759.7 mmHg | - | - | - | - |
| 1788157839 | 66° F | 62% | 759.7 mmHg | - | - | - | - |
| 1788157294 | 68° F | 61% | 759.7 mmHg | - | - | - | - |
| 1788156763 | 67° F | 65% | 759.6 mmHg | - | - | - | - |
| 1788156220 | 64° F | 68% | 759.4 mmHg | - | - | - | - |
| 1788155678 | 62° F | 69% | 759.6 mmHg | - | - | - | - |
| 1788155137 | 62° F | 69% | 759.4 mmHg | - | - | - | - |
| 1788154593 | 62° F | 68% | 759.4 mmHg | - | - | - | - |
| 1788154053 | 62° F | 68% | 759.4 mmHg | - | - | - | - |
| 1788153510 | 62° F | 68% | 759.4 mmHg | - | - | - | - |
| 1788152969 | 62° F | 68% | 759.4 mmHg | - | - | - | - |
| 1788151893 | 62° F | 67% | 759.3 mmHg | - | - | - | - |
| 1788151352 | 62° F | 67% | 759.2 mmHg | - | - | - | - |
| 1788150810 | 62° F | 68% | 759.2 mmHg | - | - | - | - |
| 1788149728 | 61° F | 68% | 759.1 mmHg | - | - | - | - |
| 1788149188 | 61° F | 68% | 759.2 mmHg | - | - | - | - |
| 1788148644 | 61° F | 68% | 759.1 mmHg | - | - | - | - |
| 1788148102 | 61° F | 68% | 759.1 mmHg | - | - | - | - |
| 1788147561 | 61° F | 68% | 759.2 mmHg | - | - | - | - |
| 1788145932 | 62° F | 65% | 759.4 mmHg | - | - | - | - |
| 1788145390 | 63° F | 63% | 759.4 mmHg | - | - | - | - |
* Rain since midnight (hover to see other rain measurements)
** Current wind speed in m/s (hover to see current wind gust speed)